Time;durP1;ratioP1;P1;durP2;ratioP2;P2;SDS_P1;SDS_P2;PMS_P1;PMS_P2;Temp;Humidity;BMP_temperature;BMP_pressure;BME280_temperature;BME280_humidity;BME280_pressure;Samples;Min_cycle;Max_cycle;Signal;HPM_P1;HPM_P2
2021/05/01 00:00:49;;;;;;;4.35;3.40;;;;;;;20.78;57.67;99315.41;1772887;79;21173;-69
2021/05/01 00:03:16;;;;;;;4.60;4.10;;;;;;;20.77;57.66;99319.19;1780710;79;21131;-72
2021/05/01 00:05:43;;;;;;;4.20;3.80;;;;;;;20.76;57.69;99322.94;1772272;79;21111;-71
2021/05/01 00:08:11;;;;;;;3.80;3.25;;;;;;;20.73;57.73;99329.66;1791595;79;21111;-70
2021/05/01 00:10:38;;;;;;;3.72;3.35;;;;;;;20.72;57.75;99329.89;1780116;79;21495;-71
2021/05/01 00:13:06;;;;;;;3.70;3.40;;;;;;;20.71;57.75;99331.78;1776108;79;21139;-72
2021/05/01 00:15:34;;;;;;;3.92;3.52;;;;;;;20.70;57.80;99326.62;1758929;79;21190;-70
2021/05/01 00:18:01;;;;;;;3.30;3.00;;;;;;;20.69;57.79;99335.80;1797904;79;21111;-71
2021/05/01 00:20:32;;;;;;;4.22;3.83;;;;;;;20.67;57.81;99341.44;1772413;79;22084;-71
2021/05/01 00:22:59;;;;;;;3.85;3.35;;;;;;;20.66;57.85;99340.33;1804984;78;21429;-70
2021/05/01 00:25:26;;;;;;;4.05;3.70;;;;;;;20.64;57.93;99328.42;1801558;77;21648;-70
2021/05/01 00:27:53;;;;;;;4.00;3.60;;;;;;;20.64;57.84;99324.91;1794652;79;21153;-71
2021/05/01 00:30:21;;;;;;;4.83;3.85;;;;;;;20.62;57.88;99330.00;1773678;80;21146;-70
2021/05/01 00:32:48;;;;;;;4.15;3.75;;;;;;;20.61;57.88;99329.73;1798727;79;21157;-71
2021/05/01 00:35:16;;;;;;;4.20;3.30;;;;;;;20.59;57.88;99326.94;1791071;77;21204;-71
2021/05/01 00:37:44;;;;;;;3.30;3.02;;;;;;;20.58;57.89;99334.77;1800843;79;21132;-71
2021/05/01 00:40:13;;;;;;;4.10;3.70;;;;;;;20.56;57.96;99339.59;1785108;79;21618;-71
2021/05/01 00:42:41;;;;;;;4.65;3.80;;;;;;;20.54;58.03;99333.62;1787047;79;21240;-71
2021/05/01 00:45:09;;;;;;;3.42;3.12;;;;;;;20.53;58.04;99337.36;1802354;79;21134;-70
2021/05/01 00:47:36;;;;;;;5.80;4.30;;;;;;;20.49;58.07;99339.73;1794906;79;21366;-71
2021/05/01 00:50:05;;;;;;;4.03;3.42;;;;;;;20.51;58.02;99344.89;1804412;79;21082;-70
2021/05/01 00:52:33;;;;;;;3.87;3.50;;;;;;;20.49;58.11;99343.77;1787182;79;21179;-69
2021/05/01 00:55:02;;;;;;;4.10;3.70;;;;;;;20.47;58.05;99349.94;1793633;79;21149;-70
2021/05/01 00:57:29;;;;;;;4.42;3.90;;;;;;;20.46;58.09;99345.63;1793140;79;21595;-71
2021/05/01 00:59:57;;;;;;;3.65;3.35;;;;;;;20.46;58.14;99345.63;1810966;79;21197;-72
2021/05/01 01:02:26;;;;;;;4.33;3.92;;;;;;;20.43;58.15;99350.14;1799015;79;21621;-72
2021/05/01 01:04:55;;;;;;;4.15;3.67;;;;;;;20.41;58.18;99353.08;1794592;79;21146;-73
2021/05/01 01:07:24;;;;;;;4.00;3.67;;;;;;;20.41;58.16;99349.03;1785137;79;21152;-72
2021/05/01 01:09:53;;;;;;;4.22;3.75;;;;;;;20.38;58.18;99353.58;1785254;79;21624;-71
2021/05/01 01:12:20;;;;;;;3.83;3.50;;;;;;;20.39;58.21;99358.44;1795979;79;21349;-72
2021/05/01 01:14:50;;;;;;;4.10;3.70;;;;;;;20.36;58.21;99355.70;1796223;79;22098;-72
2021/05/01 01:17:17;;;;;;;4.35;3.95;;;;;;;20.34;58.28;99360.52;1789460;79;21161;-72
2021/05/01 01:19:46;;;;;;;5.08;4.00;;;;;;;20.34;58.38;99363.22;1807131;79;21162;-72
2021/05/01 01:22:17;;;;;;;3.85;3.55;;;;;;;20.33;58.29;99375.59;1792721;77;21199;-72
2021/05/01 01:24:45;;;;;;;3.87;3.47;;;;;;;20.32;58.32;99375.29;1758127;79;21368;-73
2021/05/01 01:27:13;;;;;;;4.12;3.72;;;;;;;20.30;58.37;99373.36;1801028;79;21157;-72
2021/05/01 01:29:43;;;;;;;4.00;3.60;;;;;;;20.29;58.35;99383.87;1792462;79;21154;-70
2021/05/01 01:32:11;;;;;;;3.45;3.15;;;;;;;20.27;58.36;99382.77;1786483;79;21164;-69
2021/05/01 01:34:43;;;;;;;3.90;3.50;;;;;;;20.26;58.37;99381.11;1802745;78;21156;-69
2021/05/01 01:37:11;;;;;;;3.70;3.40;;;;;;;20.25;58.41;99380.03;1808848;79;21190;-69
2021/05/01 01:39:41;;;;;;;4.53;4.03;;;;;;;20.23;58.39;99382.96;1795849;77;21160;-71
2021/05/01 01:42:10;;;;;;;3.72;3.42;;;;;;;20.20;58.39;99381.58;1804311;79;21138;-69
2021/05/01 01:44:38;;;;;;;4.28;3.85;;;;;;;20.19;58.47;99386.66;1788458;79;21145;-69
2021/05/01 01:47:06;;;;;;;4.87;4.05;;;;;;;20.18;58.49;99387.70;1798753;78;21636;-70
2021/05/01 01:49:39;;;;;;;3.80;3.45;;;;;;;20.17;58.48;99388.78;1800456;79;22231;-70
2021/05/01 01:52:06;;;;;;;3.65;3.30;;;;;;;20.17;58.48;99393.37;1784521;79;21165;-70
2021/05/01 01:54:34;;;;;;;4.00;3.60;;;;;;;20.15;58.44;99393.60;1794337;79;21147;-70
2021/05/01 01:57:02;;;;;;;4.33;3.67;;;;;;;20.13;58.44;99397.06;1791957;79;21122;-70
2021/05/01 01:59:31;;;;;;;4.08;3.67;;;;;;;20.13;58.50;99398.95;1800270;77;21181;-71
2021/05/01 02:01:58;;;;;;;4.20;3.80;;;;;;;20.12;58.50;99406.20;1786494;79;22475;-70
2021/05/01 02:04:26;;;;;;;4.37;3.98;;;;;;;20.10;58.49;99411.02;1786819;79;21488;-73
2021/05/01 02:06:53;;;;;;;4.17;3.77;;;;;;;20.08;58.56;99409.09;1807093;79;21220;-72
2021/05/01 02:09:21;;;;;;;4.10;3.70;;;;;;;20.07;58.56;99412.02;1806137;79;21131;-70
2021/05/01 02:11:48;;;;;;;4.58;3.90;;;;;;;20.06;58.51;99411.20;1786773;79;21517;-70
2021/05/01 02:14:16;;;;;;;4.33;3.92;;;;;;;20.05;58.59;99410.93;1790083;77;22081;-71
2021/05/01 02:16:45;;;;;;;4.10;3.72;;;;;;;20.03;58.58;99416.55;1802899;79;21146;-69
2021/05/01 02:19:12;;;;;;;4.67;4.22;;;;;;;20.03;58.70;99418.44;1787959;77;21142;-70
2021/05/01 02:21:39;;;;;;;4.15;3.85;;;;;;;20.02;58.65;99422.98;1808994;79;21181;-70
2021/05/01 02:24:08;;;;;;;4.20;3.83;;;;;;;20.00;58.62;99422.41;1791117;79;21159;-68
2021/05/01 02:26:35;;;;;;;4.30;3.90;;;;;;;20.00;58.67;99422.95;1792132;78;21223;-69
2021/05/01 02:29:04;;;;;;;3.98;3.58;;;;;;;19.99;58.69;99421.30;1810902;77;21130;-69
2021/05/01 02:33:13;;;;;;;4.83;4.10;;;;;;;20.02;58.65;99421.64;1867836;75;22632;-69
2021/05/01 02:35:41;;;;;;;5.15;3.75;;;;;;;19.93;58.71;99420.90;1837038;77;21018;-69
2021/05/01 02:38:09;;;;;;;4.20;3.80;;;;;;;19.93;58.77;99431.69;1858081;75;21375;-70
2021/05/01 02:40:36;;;;;;;5.08;4.12;;;;;;;19.92;58.72;99422.78;1852447;75;21168;-70
2021/05/01 02:43:09;;;;;;;4.55;4.15;;;;;;;19.92;58.74;99424.67;1859549;75;21147;-69
2021/05/01 02:45:37;;;;;;;4.08;3.72;;;;;;;19.91;58.69;99427.06;1853395;75;21143;-69
2021/05/01 02:48:07;;;;;;;4.40;4.00;;;;;;;19.90;58.75;99428.94;1840134;75;21223;-69
2021/05/01 02:50:34;;;;;;;4.30;3.90;;;;;;;19.88;58.78;99432.94;1855295;77;22302;-70
2021/05/01 02:53:01;;;;;;;4.78;4.30;;;;;;;19.87;58.77;99430.75;1842857;75;21599;-70
2021/05/01 02:55:29;;;;;;;4.35;3.95;;;;;;;19.86;58.75;99434.52;1849428;77;21159;-69
2021/05/01 02:57:57;;;;;;;5.85;4.50;;;;;;;19.85;58.78;99446.34;1857179;77;21111;-70
2021/05/01 03:00:26;;;;;;;5.00;4.50;;;;;;;19.84;58.73;99437.98;1788303;78;21173;-69
2021/05/01 03:02:54;;;;;;;4.50;4.10;;;;;;;19.83;58.85;99443.06;1771596;78;21189;-70
2021/05/01 03:05:22;;;;;;;5.70;4.75;;;;;;;19.82;58.88;99444.95;1772198;78;21119;-70
2021/05/01 03:07:50;;;;;;;4.40;4.00;;;;;;;19.81;58.85;99450.57;1790248;78;21112;-71
2021/05/01 03:10:21;;;;;;;4.87;4.30;;;;;;;19.81;58.80;99460.00;1784671;78;21123;-70
2021/05/01 03:12:48;;;;;;;5.83;4.97;;;;;;;19.80;58.89;99463.23;1770588;79;21174;-70
2021/05/01 03:15:18;;;;;;;5.65;4.70;;;;;;;19.79;58.88;99465.63;1776855;78;21392;-70
2021/05/01 03:17:46;;;;;;;5.00;4.50;;;;;;;19.79;58.89;99473.70;1790116;78;21600;-71
2021/05/01 03:20:14;;;;;;;5.12;4.45;;;;;;;19.78;58.89;99460.46;1773500;78;21584;-70
2021/05/01 03:22:42;;;;;;;5.37;4.47;;;;;;;19.77;58.89;99466.39;1772523;78;21454;-70
2021/05/01 03:25:10;;;;;;;4.65;4.25;;;;;;;19.77;58.89;99473.13;1780338;78;21191;-70
2021/05/01 03:27:38;;;;;;;5.20;4.70;;;;;;;19.76;58.92;99467.45;1794024;77;21208;-69
2021/05/01 03:30:11;;;;;;;4.90;4.50;;;;;;;19.76;58.91;99470.16;1788210;80;21264;-70
2021/05/01 03:32:39;;;;;;;5.12;4.62;;;;;;;19.76;58.91;99472.00;1790175;78;21182;-71
2021/05/01 03:35:09;;;;;;;4.58;4.17;;;;;;;19.75;58.92;99484.67;1767123;79;21124;-71
2021/05/01 03:37:36;;;;;;;5.40;4.90;;;;;;;19.75;58.96;99478.47;1784134;79;21212;-70
2021/05/01 03:40:06;;;;;;;5.35;4.85;;;;;;;19.74;58.98;99483.05;1778953;78;21322;-69
2021/05/01 03:42:34;;;;;;;5.55;5.00;;;;;;;19.73;59.01;99485.43;1780284;78;21104;-69
2021/05/01 03:45:02;;;;;;;5.05;4.55;;;;;;;19.74;59.04;99486.25;1771295;78;21144;-69
2021/05/01 03:47:30;;;;;;;5.25;4.75;;;;;;;19.74;59.01;99483.55;1742358;79;21192;-69
2021/05/01 03:49:58;;;;;;;5.20;4.70;;;;;;;19.75;59.04;99490.59;1788685;79;21115;-69
2021/05/01 03:52:25;;;;;;;5.05;4.58;;;;;;;19.76;59.04;99496.26;1794978;79;21370;-70
2021/05/01 03:54:53;;;;;;;5.47;4.97;;;;;;;19.75;59.05;99496.80;1786270;78;21157;-69
2021/05/01 03:57:21;;;;;;;5.83;5.22;;;;;;;19.76;59.04;99503.00;1780201;79;21142;-69
2021/05/01 03:59:49;;;;;;;4.80;4.40;;;;;;;19.76;59.05;99502.49;1779420;78;21198;-70
2021/05/01 04:02:18;;;;;;;5.03;4.53;;;;;;;19.79;59.07;99508.75;1773034;78;21198;-69
2021/05/01 04:04:46;;;;;;;5.33;4.83;;;;;;;19.80;59.00;99513.09;1765414;78;21353;-70
2021/05/01 04:07:13;;;;;;;4.70;4.30;;;;;;;19.81;59.00;99522.81;1773876;79;21160;-70
2021/05/01 04:09:41;;;;;;;5.50;4.92;;;;;;;19.83;59.02;99525.27;1784509;79;21186;-70
2021/05/01 04:12:09;;;;;;;5.45;4.78;;;;;;;19.84;59.05;99521.00;1791243;79;21166;-69
2021/05/01 04:14:36;;;;;;;6.00;5.12;;;;;;;19.87;59.01;99517.55;1790017;78;21144;-69
2021/05/01 04:17:04;;;;;;;6.10;5.10;;;;;;;19.89;58.96;99523.52;1774411;79;21358;-69
2021/05/01 04:19:33;;;;;;;5.40;4.78;;;;;;;19.91;58.93;99525.45;1772718;78;21172;-71
2021/05/01 04:22:05;;;;;;;5.65;4.87;;;;;;;19.93;58.91;99528.73;1773389;78;21186;-70
2021/05/01 04:24:32;;;;;;;5.75;5.05;;;;;;;19.95;58.82;99533.36;1760478;78;21712;-70
2021/05/01 04:27:00;;;;;;;5.12;4.72;;;;;;;19.96;58.88;99528.27;1763631;78;21323;-70
2021/05/01 04:29:27;;;;;;;5.35;4.85;;;;;;;19.99;58.87;99530.48;1842312;76;21330;-69
2021/05/01 04:31:55;;;;;;;4.97;4.30;;;;;;;20.01;58.78;99529.72;1836530;76;21176;-69
2021/05/01 04:34:22;;;;;;;4.85;4.45;;;;;;;20.03;58.82;99523.59;1827337;77;21230;-69
2021/05/01 04:36:50;;;;;;;5.20;4.70;;;;;;;20.04;58.76;99526.56;1829219;77;21128;-68
2021/05/01 04:39:17;;;;;;;4.90;4.40;;;;;;;20.06;58.77;99524.98;1840964;76;21118;-69
2021/05/01 04:41:45;;;;;;;5.37;4.87;;;;;;;20.06;58.66;99528.50;1833406;76;22172;-68
2021/05/01 04:44:14;;;;;;;5.22;4.72;;;;;;;20.08;58.69;99535.01;1837783;76;21129;-69
2021/05/01 04:46:42;;;;;;;4.70;4.30;;;;;;;20.08;58.66;99537.17;1838737;76;21141;-70
2021/05/01 04:49:10;;;;;;;5.20;4.70;;;;;;;20.09;58.63;99544.22;1840727;76;21172;-69
2021/05/01 04:51:38;;;;;;;5.12;4.40;;;;;;;20.10;58.59;99536.41;1824383;76;21204;-70
2021/05/01 04:54:07;;;;;;;4.65;4.25;;;;;;;20.12;58.58;99540.22;1848905;77;21264;-69
2021/05/01 04:56:35;;;;;;;5.53;4.08;;;;;;;20.12;58.54;99535.64;1820436;76;21147;-71
2021/05/01 04:59:03;;;;;;;5.17;4.67;;;;;;;20.14;58.51;99536.76;1823087;76;21152;-71
2021/05/01 05:01:32;;;;;;;5.20;4.67;;;;;;;20.15;58.57;99532.48;1825375;76;21163;-70
2021/05/01 05:04:00;;;;;;;5.67;4.97;;;;;;;20.16;58.60;99534.11;1828769;76;21144;-71
2021/05/01 05:06:28;;;;;;;5.25;4.75;;;;;;;20.18;58.56;99532.53;1828690;76;21209;-71
2021/05/01 05:08:56;;;;;;;4.58;4.17;;;;;;;20.18;58.56;99531.99;1839495;77;21123;-70
2021/05/01 05:11:24;;;;;;;4.92;4.40;;;;;;;20.19;58.55;99537.69;1829711;76;21167;-71
2021/05/01 05:13:52;;;;;;;4.85;4.45;;;;;;;20.20;58.55;99529.06;1840247;76;21220;-71
2021/05/01 05:16:20;;;;;;;5.10;4.55;;;;;;;20.22;58.57;99533.19;1846681;76;21390;-70
2021/05/01 05:18:47;;;;;;;6.05;5.15;;;;;;;20.23;58.52;99533.45;1836781;77;21446;-70
2021/05/01 05:21:15;;;;;;;5.00;4.58;;;;;;;20.26;58.54;99538.09;1824590;76;21169;-72
2021/05/01 05:23:43;;;;;;;4.60;4.10;;;;;;;20.27;58.42;99537.05;1836307;76;21044;-72
2021/05/01 05:26:10;;;;;;;4.87;4.47;;;;;;;20.27;58.40;99541.09;1826391;77;21619;-70
2021/05/01 05:28:38;;;;;;;5.12;4.62;;;;;;;20.28;58.42;99540.02;1842099;76;21722;-70
2021/05/01 05:31:05;;;;;;;5.10;4.60;;;;;;;20.29;58.38;99537.63;1821177;76;21200;-71
2021/05/01 05:33:33;;;;;;;5.03;4.53;;;;;;;20.30;58.41;99537.91;1833016;76;21156;-69
2021/05/01 05:36:00;;;;;;;4.97;4.50;;;;;;;20.31;58.40;99545.77;1822392;76;21575;-70
2021/05/01 05:38:28;;;;;;;5.12;4.62;;;;;;;20.33;58.39;99546.88;1843349;77;21188;-72
2021/05/01 05:40:55;;;;;;;5.17;4.67;;;;;;;20.34;58.40;99541.77;1842655;76;21151;-71
2021/05/01 05:43:23;;;;;;;4.90;4.42;;;;;;;20.36;58.36;99541.84;1839337;76;21364;-70
2021/05/01 05:45:50;;;;;;;5.03;4.53;;;;;;;20.37;58.31;99541.30;1771601;80;21160;-71
2021/05/01 05:48:18;;;;;;;4.83;4.35;;;;;;;20.39;58.30;99540.53;1791501;79;21178;-69
2021/05/01 05:50:46;;;;;;;4.72;4.22;;;;;;;20.41;58.28;99548.67;1802799;78;21195;-71
2021/05/01 05:53:13;;;;;;;4.55;4.15;;;;;;;20.44;58.29;99546.05;1790534;78;22231;-70
2021/05/01 05:55:40;;;;;;;4.50;4.10;;;;;;;20.45;58.29;99546.33;1828608;77;21429;-70
2021/05/01 05:58:08;;;;;;;4.72;4.33;;;;;;;20.48;58.31;99551.80;1828090;76;21591;-70
2021/05/01 06:00:35;;;;;;;4.53;4.12;;;;;;;20.50;58.30;99553.72;1773851;79;21128;-70
2021/05/01 06:03:02;;;;;;;5.00;4.50;;;;;;;20.52;58.17;99553.77;1776732;79;21147;-70
2021/05/01 06:05:36;;;;;;;4.80;4.40;;;;;;;20.55;58.15;99554.66;1769300;79;21485;-70
2021/05/01 06:08:05;;;;;;;5.42;4.55;;;;;;;20.56;58.15;99553.58;1747783;79;21355;-69
2021/05/01 06:10:33;;;;;;;5.33;4.83;;;;;;;20.58;58.13;99557.39;1764457;78;21623;-71
2021/05/01 06:13:03;;;;;;;4.78;4.37;;;;;;;20.59;58.13;99554.50;1771962;79;21483;-70
2021/05/01 06:15:31;;;;;;;4.45;3.98;;;;;;;20.61;58.08;99553.73;1841206;76;21147;-71
2021/05/01 06:18:00;;;;;;;5.10;4.60;;;;;;;20.64;58.04;99562.41;1829192;76;21196;-71
2021/05/01 06:20:28;;;;;;;5.35;4.85;;;;;;;20.65;58.02;99570.27;1837096;76;21362;-71
2021/05/01 06:22:56;;;;;;;4.85;4.37;;;;;;;20.67;58.01;99568.66;1814386;76;21120;-71
2021/05/01 06:25:24;;;;;;;4.90;4.40;;;;;;;20.69;58.04;99566.03;1824948;76;21127;-72
2021/05/01 06:27:52;;;;;;;5.30;4.90;;;;;;;20.71;57.99;99565.26;1797251;79;21559;-71
2021/05/01 06:30:21;;;;;;;4.62;4.22;;;;;;;20.73;57.93;99559.63;1820916;76;21159;-71
2021/05/01 06:32:50;;;;;;;6.08;5.03;;;;;;;20.76;57.93;99571.27;1824172;76;22580;-71
2021/05/01 06:35:18;;;;;;;5.05;4.65;;;;;;;20.77;57.86;99568.88;1850299;75;21136;-71
2021/05/01 06:37:46;;;;;;;4.83;4.42;;;;;;;20.80;57.79;99575.13;1848525;75;21200;-71
2021/05/01 06:40:16;;;;;;;4.62;4.22;;;;;;;20.81;57.79;99576.79;1841680;77;21146;-73
2021/05/01 06:42:59;;;;;;;4.75;4.35;;;;;;;20.83;57.75;99581.95;1851959;75;21142;-70
2021/05/01 06:45:24;;;;;;;4.55;4.15;;;;;;;20.85;57.78;99583.34;1852375;75;21377;-70
2021/05/01 06:47:57;;;;;;;4.58;4.17;;;;;;;20.87;57.74;99581.77;1838171;75;21168;-71
2021/05/01 06:50:28;;;;;;;5.28;4.35;;;;;;;20.88;57.71;99580.18;1844350;75;21172;-70
2021/05/01 06:52:57;;;;;;;4.97;4.47;;;;;;;20.89;57.72;99579.11;1843228;75;21120;-70
2021/05/01 06:55:30;;;;;;;5.22;4.72;;;;;;;20.90;57.68;99582.11;1836062;75;21123;-71
2021/05/01 06:58:00;;;;;;;4.85;4.45;;;;;;;20.93;57.68;99584.84;1841497;75;21635;-73
2021/05/01 07:00:28;;;;;;;4.37;3.98;;;;;;;20.94;57.61;99585.97;1829982;76;21168;-74
2021/05/01 07:03:04;;;;;;;4.60;4.25;;;;;;;20.96;57.64;99587.08;1822753;75;21176;-72
2021/05/01 07:05:33;;;;;;;4.50;4.10;;;;;;;20.97;57.57;99576.55;1827598;75;21194;-69
2021/05/01 07:08:01;;;;;;;4.25;3.85;;;;;;;20.99;57.57;99576.59;1822996;75;21210;-70
2021/05/01 07:10:30;;;;;;;4.40;4.00;;;;;;;21.01;57.54;99583.95;1826640;75;21365;-71
2021/05/01 07:12:59;;;;;;;4.37;3.98;;;;;;;21.03;57.49;99584.22;1829664;75;21191;-69
2021/05/01 07:15:28;;;;;;;4.78;4.30;;;;;;;21.05;57.46;99581.56;1834907;75;21155;-69
2021/05/01 07:17:55;;;;;;;4.50;4.10;;;;;;;21.08;57.44;99573.53;1834406;75;21116;-69
2021/05/01 07:20:24;;;;;;;4.53;4.12;;;;;;;21.08;57.46;99569.48;1843163;75;21109;-69
2021/05/01 07:22:52;;;;;;;4.25;3.85;;;;;;;21.12;57.37;99584.95;1845809;75;21402;-68
2021/05/01 07:25:22;;;;;;;4.10;3.80;;;;;;;21.11;57.35;99573.03;1838070;75;21175;-70
2021/05/01 07:28:02;;;;;;;4.35;3.95;;;;;;;21.16;57.33;99573.14;1822811;75;21208;-69
2021/05/01 07:30:33;;;;;;;3.90;3.60;;;;;;;21.18;57.32;99575.06;1826419;75;21172;-69
2021/05/01 07:33:10;;;;;;;4.08;3.77;;;;;;;21.20;57.34;99574.28;1827933;75;21196;-69
2021/05/01 07:35:37;;;;;;;4.17;3.85;;;;;;;21.21;57.28;99575.95;1844377;76;21371;-69
2021/05/01 07:38:11;;;;;;;4.30;3.90;;;;;;;21.24;57.32;99575.44;1818224;77;21161;-68
2021/05/01 07:40:40;;;;;;;4.08;3.67;;;;;;;21.26;57.47;99575.20;1820935;78;21137;-69
2021/05/01 07:43:08;;;;;;;4.05;3.62;;;;;;;21.29;57.31;99580.14;1800175;78;21135;-69
2021/05/01 07:45:36;;;;;;;4.20;3.80;;;;;;;21.30;57.30;99571.77;1789515;80;21130;-69
2021/05/01 07:48:07;;;;;;;4.45;4.05;;;;;;;21.34;57.28;99572.10;1788441;80;21200;-70
2021/05/01 07:50:35;;;;;;;3.80;3.50;;;;;;;21.35;57.25;99568.35;1756623;80;21572;-70
2021/05/01 07:53:03;;;;;;;3.80;3.50;;;;;;;21.38;57.29;99573.25;1789402;80;21148;-69
2021/05/01 07:55:31;;;;;;;4.10;3.70;;;;;;;21.40;57.29;99577.38;1789403;80;21578;-70
2021/05/01 07:57:59;;;;;;;4.35;3.95;;;;;;;21.43;57.26;99572.54;1789505;80;21170;-70
2021/05/01 08:00:26;;;;;;;4.45;3.70;;;;;;;21.46;57.20;99570.20;1789283;79;22069;-70
2021/05/01 08:02:54;;;;;;;4.42;4.03;;;;;;;21.50;57.17;99579.97;1789349;80;21414;-69
2021/05/01 08:05:21;;;;;;;3.75;3.45;;;;;;;21.52;57.08;99572.47;1789374;80;21594;-64
2021/05/01 08:07:49;;;;;;;4.05;3.75;;;;;;;21.54;57.04;99580.61;1788872;80;21150;-64
2021/05/01 08:10:17;;;;;;;4.30;3.90;;;;;;;21.57;57.02;99581.99;1789350;80;21581;-64
2021/05/01 08:12:44;;;;;;;3.92;3.62;;;;;;;21.59;56.95;99583.92;1789378;80;21198;-69
2021/05/01 08:15:13;;;;;;;3.70;3.40;;;;;;;21.62;56.90;99588.84;1789260;80;21134;-69
2021/05/01 08:17:41;;;;;;;4.33;3.90;;;;;;;21.65;56.92;99586.17;1789435;80;21170;-71
2021/05/01 08:20:12;;;;;;;3.52;3.22;;;;;;;21.67;56.91;99586.23;1789329;80;21126;-69
2021/05/01 08:22:39;;;;;;;3.92;3.52;;;;;;;21.69;56.79;99588.16;1789404;80;21130;-70
2021/05/01 08:25:09;;;;;;;3.90;3.60;;;;;;;21.72;56.75;99597.12;1789394;80;22234;-64
2021/05/01 08:27:37;;;;;;;3.62;3.33;;;;;;;21.70;56.73;99588.44;1789469;80;21586;-64
2021/05/01 08:30:08;;;;;;;3.77;3.47;;;;;;;21.77;56.70;99595.05;1761117;80;21566;-65
2021/05/01 08:32:35;;;;;;;3.98;3.65;;;;;;;21.80;56.61;99589.95;1789361;80;21129;-65
2021/05/01 08:35:05;;;;;;;3.52;3.22;;;;;;;21.83;56.58;99598.12;1772091;79;21111;-64
2021/05/01 08:37:32;;;;;;;3.58;3.27;;;;;;;21.87;56.57;99601.16;1773644;80;21184;-64
2021/05/01 08:39:59;;;;;;;3.50;3.20;;;;;;;21.89;56.45;99601.73;1773625;80;21135;-64
2021/05/01 08:42:27;;;;;;;4.55;3.58;;;;;;;21.92;56.42;99607.98;1773622;80;21182;-64
2021/05/01 08:44:56;;;;;;;3.37;3.10;;;;;;;21.94;56.38;99609.39;1773736;80;21615;-65
2021/05/01 08:47:25;;;;;;;4.17;3.35;;;;;;;21.98;56.37;99611.05;1745660;80;21122;-64
2021/05/01 08:49:53;;;;;;;3.98;3.58;;;;;;;22.01;56.32;99607.05;1773620;80;21191;-64
2021/05/01 08:52:20;;;;;;;3.40;3.10;;;;;;;22.04;56.26;99611.95;1773475;80;21174;-64
2021/05/01 08:54:48;;;;;;;3.55;3.25;;;;;;;22.07;56.20;99609.57;1773648;80;21146;-64
2021/05/01 08:57:31;;;;;;;3.50;3.20;;;;;;;22.10;56.22;99608.28;1773564;80;21154;-64
2021/05/01 08:59:58;;;;;;;3.70;3.40;;;;;;;22.13;56.15;99605.88;1773659;80;21150;-64
2021/05/01 09:02:27;;;;;;;3.10;2.85;;;;;;;22.16;56.11;99605.39;1773577;80;21140;-64
2021/05/01 09:04:56;;;;;;;3.67;3.37;;;;;;;22.21;55.98;99603.82;1745976;80;21142;-64
2021/05/01 09:07:25;;;;;;;3.33;3.02;;;;;;;22.23;56.10;99608.45;1773483;80;21130;-64
2021/05/01 09:09:58;;;;;;;3.60;3.30;;;;;;;22.27;55.98;99605.56;1773555;80;21094;-64
2021/05/01 09:12:43;;;;;;;3.70;3.40;;;;;;;22.31;55.94;99599.94;1773756;80;21119;-64
2021/05/01 09:15:23;;;;;;;3.67;3.37;;;;;;;22.35;56.04;99610.03;1773623;80;21365;-64
2021/05/01 09:18:02;;;;;;;3.83;3.52;;;;;;;22.40;56.11;99603.86;1773571;80;21153;-64
2021/05/01 09:20:29;;;;;;;3.15;2.95;;;;;;;22.44;56.12;99609.59;1773604;80;21134;-63
2021/05/01 09:23:08;;;;;;;3.37;3.08;;;;;;;22.47;56.31;99620.75;1773572;80;21179;-64
2021/05/01 09:25:58;;;;;;;3.77;3.47;;;;;;;22.52;56.40;99612.70;1773596;80;21154;-64
2021/05/01 09:28:28;;;;;;;3.30;3.00;;;;;;;22.56;56.37;99611.65;1773681;80;21323;-64
2021/05/01 09:31:05;;;;;;;3.80;3.50;;;;;;;22.61;56.59;99607.66;1746057;80;21126;-64
2021/05/01 09:33:35;;;;;;;3.25;2.95;;;;;;;22.67;56.50;99613.97;1775706;80;21256;-65
2021/05/01 09:36:13;;;;;;;3.65;3.35;;;;;;;22.72;56.52;99604.56;1789419;80;21141;-64
2021/05/01 09:38:43;;;;;;;3.27;2.98;;;;;;;22.78;56.68;99594.89;1760989;80;21138;-64
2021/05/01 09:41:22;;;;;;;3.52;3.22;;;;;;;22.85;56.86;99596.58;1789297;80;21238;-65
2021/05/01 09:44:02;;;;;;;3.15;2.85;;;;;;;22.92;56.78;99606.70;1789365;80;21134;-64
2021/05/01 09:46:39;;;;;;;2.95;2.75;;;;;;;22.96;56.76;99601.05;1789398;80;21121;-63
2021/05/01 09:49:24;;;;;;;3.30;3.00;;;;;;;23.04;56.95;99607.41;1789361;80;21121;-64
2021/05/01 09:52:12;;;;;;;2.85;2.65;;;;;;;23.16;57.15;99595.09;1842090;77;22663;-63
2021/05/01 09:54:46;;;;;;;3.27;2.98;;;;;;;23.19;56.97;99599.98;1811323;79;21095;-64
2021/05/01 09:57:16;;;;;;;3.17;2.90;;;;;;;23.27;56.82;99596.00;1826578;78;22284;-65
2021/05/01 09:59:46;;;;;;;3.12;2.83;;;;;;;23.33;56.60;99592.27;1826489;78;21040;-64
2021/05/01 10:02:19;;;;;;;3.10;2.80;;;;;;;23.41;56.51;99583.70;1826521;78;21131;-65
2021/05/01 10:05:11;;;;;;;3.15;2.90;;;;;;;23.49;56.75;99586.48;1826687;78;21135;-65
2021/05/01 10:07:42;;;;;;;3.02;2.83;;;;;;;23.53;57.08;99588.95;1826715;78;21654;-64
2021/05/01 10:10:09;;;;;;;2.90;2.70;;;;;;;23.63;56.85;99586.87;1826565;78;22316;-64
2021/05/01 10:12:42;;;;;;;3.02;2.83;;;;;;;23.68;56.65;99589.09;1826600;78;21162;-65
2021/05/01 10:15:19;;;;;;;3.00;2.80;;;;;;;23.77;56.70;99592.67;1826756;78;21584;-63
2021/05/01 10:17:47;;;;;;;3.15;2.87;;;;;;;23.83;56.67;99580.81;1826581;78;21120;-64
2021/05/01 10:20:15;;;;;;;3.33;3.02;;;;;;;23.90;56.86;99584.13;1826486;78;21135;-64
2021/05/01 10:22:44;;;;;;;3.90;3.08;;;;;;;23.98;56.94;99593.69;1826533;78;21336;-65
2021/05/01 10:25:19;;;;;;;2.72;2.52;;;;;;;24.05;56.65;99579.33;1826393;78;21131;-64
2021/05/01 10:27:58;;;;;;;2.72;2.52;;;;;;;24.11;56.77;99579.67;1826383;78;21134;-66
2021/05/01 10:33:33;;;;;;;2.70;2.50;;;;;;;24.27;56.96;99584.65;1826540;78;21135;-64
2021/05/01 10:36:17;;;;;;;2.85;2.58;;;;;;;24.36;57.04;99586.31;1826585;78;21154;-65
2021/05/01 10:38:45;;;;;;;3.00;2.72;;;;;;;24.44;57.12;99585.84;1826522;78;21139;-65
2021/05/01 10:41:17;;;;;;;2.72;2.52;;;;;;;24.52;57.31;99579.92;1826456;78;21127;-65
2021/05/01 10:43:53;;;;;;;;;;;;;;;24.62;57.35;99585.95;1829207;78;21167;-64
2021/05/01 10:46:27;;;;;;;2.70;2.50;;;;;;;24.71;57.62;99583.81;1817669;79;20568;-65
2021/05/01 10:49:09;;;;;;;3.00;2.80;;;;;;;24.76;57.71;99586.27;1817601;79;21146;-64
2021/05/01 10:51:39;;;;;;;3.12;2.83;;;;;;;24.85;57.68;99588.20;1817423;78;21130;-64
2021/05/01 10:54:19;;;;;;;2.90;2.70;;;;;;;24.98;57.51;99588.81;1817632;78;21562;-64
2021/05/01 10:56:49;;;;;;;2.70;2.50;;;;;;;25.10;57.35;99583.39;1817540;79;21220;-66
2021/05/01 10:59:27;;;;;;;2.40;2.20;;;;;;;25.23;57.27;99583.46;1817497;79;21110;-65
2021/05/01 11:01:57;;;;;;;2.80;2.60;;;;;;;25.34;57.34;99576.13;1817291;79;21351;-63
2021/05/01 11:04:31;;;;;;;2.83;2.62;;;;;;;25.46;57.00;99578.06;1816904;79;21173;-64
2021/05/01 11:07:21;;;;;;;2.90;2.70;;;;;;;25.58;56.38;99576.98;1817057;79;21565;-64
2021/05/01 11:09:49;;;;;;;2.87;2.67;;;;;;;25.72;56.05;99585.42;1816914;79;21145;-64
2021/05/01 11:12:20;;;;;;;2.90;2.70;;;;;;;25.82;55.92;99573.97;1816913;79;21150;-65
2021/05/01 11:15:11;;;;;;;2.80;2.60;;;;;;;25.95;55.90;99569.92;1817068;79;21721;-65
2021/05/01 11:18:05;;;;;;;2.45;2.25;;;;;;;26.08;55.84;99576.72;1816957;79;21613;-66
2021/05/01 11:20:34;;;;;;;2.50;2.30;;;;;;;26.21;55.68;99569.86;1816923;78;21138;-64
2021/05/01 11:23:02;;;;;;;2.50;2.30;;;;;;;26.33;55.43;99566.31;1816897;78;21236;-65
2021/05/01 11:25:31;;;;;;;2.58;2.37;;;;;;;26.45;55.21;99570.09;1816890;79;21621;-65
2021/05/01 11:27:58;;;;;;;2.10;2.00;;;;;;;26.58;54.86;99570.02;1816917;79;21355;-65
2021/05/01 11:30:28;;;;;;;2.65;2.45;;;;;;;26.70;54.59;99559.67;1816695;79;21641;-65
2021/05/01 11:32:57;;;;;;;2.50;2.30;;;;;;;26.83;54.27;99556.86;1816250;79;21122;-64
2021/05/01 11:35:26;;;;;;;2.50;2.30;;;;;;;26.95;53.93;99554.64;1816888;79;21146;-65
2021/05/01 11:38:03;;;;;;;2.22;2.02;;;;;;;27.07;53.73;99559.19;1816841;79;21146;-65
2021/05/01 11:40:33;;;;;;;2.33;2.12;;;;;;;27.20;53.58;99544.68;1816892;79;22255;-65
2021/05/01 11:43:01;;;;;;;2.45;2.25;;;;;;;27.31;53.12;99548.16;1816968;79;21144;-65
2021/05/01 11:45:36;;;;;;;2.20;2.10;;;;;;;27.43;52.97;99548.63;1816824;78;21165;-64
2021/05/01 11:48:09;;;;;;;2.35;2.17;;;;;;;27.56;52.58;99548.52;1816954;79;21154;-64
2021/05/01 11:50:38;;;;;;;2.25;2.15;;;;;;;27.68;52.42;99545.41;1813767;78;21229;-65